sensor_id;sensor_type;location;lat;lon;timestamp;pressure;altitude;pressure_sealevel;temperature;humidity
82305;BME280;71914;47.382;8.168;2024-02-26T00:01:36;94934.25;;;5.69;70.12
82305;BME280;71914;47.382;8.168;2024-02-26T00:04:02;94926.16;;;5.72;70.33
82305;BME280;71914;47.382;8.168;2024-02-26T00:06:28;94926.06;;;5.82;72.16
82305;BME280;71914;47.382;8.168;2024-02-26T00:08:53;94918.31;;;5.90;68.69
82305;BME280;71914;47.382;8.168;2024-02-26T00:11:19;94934.28;;;5.95;70.37
82305;BME280;71914;47.382;8.168;2024-02-26T00:13:46;94923.66;;;5.89;70.42
82305;BME280;71914;47.382;8.168;2024-02-26T00:16:11;94927.22;;;5.88;68.66
82305;BME280;71914;47.382;8.168;2024-02-26T00:18:37;94920.41;;;5.87;71.61
82305;BME280;71914;47.382;8.168;2024-02-26T00:21:03;94924.78;;;5.86;73.02
82305;BME280;71914;47.382;8.168;2024-02-26T00:23:28;94917.44;;;5.81;70.23
82305;BME280;71914;47.382;8.168;2024-02-26T00:25:54;94925.00;;;5.93;68.84
82305;BME280;71914;47.382;8.168;2024-02-26T00:28:20;94926.19;;;5.98;72.77
82305;BME280;71914;47.382;8.168;2024-02-26T00:30:47;94936.34;;;5.92;72.77
82305;BME280;71914;47.382;8.168;2024-02-26T00:33:16;94923.00;;;5.87;72.46
82305;BME280;71914;47.382;8.168;2024-02-26T00:35:42;94920.75;;;5.92;73.49
82305;BME280;71914;47.382;8.168;2024-02-26T00:38:08;94930.34;;;5.91;72.80
82305;BME280;71914;47.382;8.168;2024-02-26T00:40:33;94930.34;;;5.91;73.27
82305;BME280;71914;47.382;8.168;2024-02-26T00:42:59;94938.66;;;5.95;73.28
82305;BME280;71914;47.382;8.168;2024-02-26T00:45:25;94938.16;;;5.91;71.41
82305;BME280;71914;47.382;8.168;2024-02-26T00:47:52;94944.31;;;5.90;72.06
82305;BME280;71914;47.382;8.168;2024-02-26T00:50:17;94940.91;;;5.90;74.45
82305;BME280;71914;47.382;8.168;2024-02-26T00:52:43;94928.88;;;5.89;73.84
82305;BME280;71914;47.382;8.168;2024-02-26T00:55:09;94930.78;;;5.87;73.21
82305;BME280;71914;47.382;8.168;2024-02-26T00:57:34;94935.34;;;5.85;72.69
82305;BME280;71914;47.382;8.168;2024-02-26T01:00:00;94931.75;;;5.86;74.76
82305;BME280;71914;47.382;8.168;2024-02-26T01:02:26;94936.00;;;5.87;74.13
82305;BME280;71914;47.382;8.168;2024-02-26T01:04:53;94926.56;;;5.86;75.29
82305;BME280;71914;47.382;8.168;2024-02-26T01:07:19;94918.63;;;5.87;74.65
82305;BME280;71914;47.382;8.168;2024-02-26T01:09:44;94916.69;;;5.89;76.90
82305;BME280;71914;47.382;8.168;2024-02-26T01:12:10;94916.22;;;5.94;76.74
82305;BME280;71914;47.382;8.168;2024-02-26T01:14:36;94909.91;;;5.96;73.37
82305;BME280;71914;47.382;8.168;2024-02-26T01:17:01;94910.72;;;5.97;74.98
82305;BME280;71914;47.382;8.168;2024-02-26T01:19:28;94910.06;;;5.95;76.51
82305;BME280;71914;47.382;8.168;2024-02-26T01:21:55;94905.50;;;5.97;76.86
82305;BME280;71914;47.382;8.168;2024-02-26T01:24:20;94912.22;;;6.00;75.49
82305;BME280;71914;47.382;8.168;2024-02-26T01:26:45;94906.59;;;6.04;75.07
82305;BME280;71914;47.382;8.168;2024-02-26T01:29:11;94901.94;;;6.16;74.10
82305;BME280;71914;47.382;8.168;2024-02-26T01:31:37;94898.47;;;6.07;74.27
82305;BME280;71914;47.382;8.168;2024-02-26T01:34:02;94891.03;;;5.94;74.94
82305;BME280;71914;47.382;8.168;2024-02-26T01:36:28;94895.88;;;5.89;78.02
82305;BME280;71914;47.382;8.168;2024-02-26T01:38:55;94891.00;;;5.86;78.14
82305;BME280;71914;47.382;8.168;2024-02-26T01:41:20;94889.41;;;5.93;76.09
82305;BME280;71914;47.382;8.168;2024-02-26T01:43:46;94882.66;;;6.01;77.99
82305;BME280;71914;47.382;8.168;2024-02-26T01:46:14;94882.34;;;6.04;77.99
82305;BME280;71914;47.382;8.168;2024-02-26T01:48:40;94899.41;;;6.06;75.80
82305;BME280;71914;47.382;8.168;2024-02-26T01:51:06;94900.09;;;6.08;77.17
82305;BME280;71914;47.382;8.168;2024-02-26T01:53:32;94906.78;;;6.11;77.89
82305;BME280;71914;47.382;8.168;2024-02-26T01:55:59;94904.81;;;6.13;78.60
82305;BME280;71914;47.382;8.168;2024-02-26T01:58:25;94908.25;;;6.13;76.59
82305;BME280;71914;47.382;8.168;2024-02-26T02:00:50;94915.38;;;6.11;77.66
82305;BME280;71914;47.382;8.168;2024-02-26T02:03:16;94914.41;;;6.12;78.93
82305;BME280;71914;47.382;8.168;2024-02-26T02:05:42;94916.34;;;6.10;77.77
82305;BME280;71914;47.382;8.168;2024-02-26T02:08:09;94907.59;;;6.11;78.13
82305;BME280;71914;47.382;8.168;2024-02-26T02:10:35;94898.50;;;6.15;79.44
82305;BME280;71914;47.382;8.168;2024-02-26T02:13:03;94891.22;;;6.19;79.84
82305;BME280;71914;47.382;8.168;2024-02-26T02:15:29;94895.44;;;6.20;79.62
82305;BME280;71914;47.382;8.168;2024-02-26T02:17:55;94884.84;;;6.13;77.04
82305;BME280;71914;47.382;8.168;2024-02-26T02:20:25;94867.97;;;6.18;75.62
82305;BME280;71914;47.382;8.168;2024-02-26T02:22:50;94857.84;;;6.14;75.77
82305;BME280;71914;47.382;8.168;2024-02-26T02:25:16;94852.63;;;6.06;77.64
82305;BME280;71914;47.382;8.168;2024-02-26T02:27:42;94857.22;;;5.86;79.07
82305;BME280;71914;47.382;8.168;2024-02-26T02:30:09;94859.28;;;5.82;79.80
82305;BME280;71914;47.382;8.168;2024-02-26T02:32:37;94860.00;;;5.93;81.78
82305;BME280;71914;47.382;8.168;2024-02-26T02:35:03;94851.03;;;6.13;79.65
82305;BME280;71914;47.382;8.168;2024-02-26T02:37:30;94838.25;;;5.94;78.86
82305;BME280;71914;47.382;8.168;2024-02-26T02:39:56;94823.59;;;5.93;78.52
82305;BME280;71914;47.382;8.168;2024-02-26T02:42:23;94834.44;;;5.88;80.32
82305;BME280;71914;47.382;8.168;2024-02-26T02:44:49;94847.41;;;5.80;79.81
82305;BME280;71914;47.382;8.168;2024-02-26T02:47:14;94845.94;;;5.77;79.11
82305;BME280;71914;47.382;8.168;2024-02-26T02:49:40;94853.78;;;5.86;81.96
82305;BME280;71914;47.382;8.168;2024-02-26T02:52:05;94857.41;;;5.93;81.60
82305;BME280;71914;47.382;8.168;2024-02-26T02:54:32;94858.38;;;5.92;80.57
82305;BME280;71914;47.382;8.168;2024-02-26T02:56:58;94853.84;;;5.94;82.00
82305;BME280;71914;47.382;8.168;2024-02-26T02:59:23;94867.81;;;5.93;79.84
82305;BME280;71914;47.382;8.168;2024-02-26T03:01:49;94856.88;;;5.89;79.61
82305;BME280;71914;47.382;8.168;2024-02-26T03:04:14;94866.84;;;5.94;79.07
82305;BME280;71914;47.382;8.168;2024-02-26T03:06:40;94859.03;;;5.94;79.25
82305;BME280;71914;47.382;8.168;2024-02-26T03:09:06;94869.44;;;5.94;80.69
82305;BME280;71914;47.382;8.168;2024-02-26T03:11:32;94876.03;;;5.88;81.02
82305;BME280;71914;47.382;8.168;2024-02-26T03:13:58;94878.50;;;5.90;81.44
82305;BME280;71914;47.382;8.168;2024-02-26T03:16:23;94876.56;;;5.92;81.37
82305;BME280;71914;47.382;8.168;2024-02-26T03:18:49;94880.13;;;5.91;81.11
82305;BME280;71914;47.382;8.168;2024-02-26T03:21:15;94866.16;;;5.92;81.46
82305;BME280;71914;47.382;8.168;2024-02-26T03:23:40;94874.44;;;5.87;79.99
82305;BME280;71914;47.382;8.168;2024-02-26T03:26:06;94880.91;;;5.83;81.28
82305;BME280;71914;47.382;8.168;2024-02-26T03:28:33;94878.00;;;5.86;79.67
82305;BME280;71914;47.382;8.168;2024-02-26T03:30:59;94884.31;;;5.84;80.71
82305;BME280;71914;47.382;8.168;2024-02-26T03:33:25;94882.06;;;5.89;79.32
82305;BME280;71914;47.382;8.168;2024-02-26T03:35:50;94890.31;;;5.84;80.15
82305;BME280;71914;47.382;8.168;2024-02-26T03:38:16;94892.13;;;5.84;80.30
82305;BME280;71914;47.382;8.168;2024-02-26T03:40:42;94889.97;;;5.79;81.11
82305;BME280;71914;47.382;8.168;2024-02-26T03:43:08;94899.75;;;5.85;81.10
82305;BME280;71914;47.382;8.168;2024-02-26T03:45:35;94896.19;;;5.86;79.77
82305;BME280;71914;47.382;8.168;2024-02-26T03:48:00;94903.78;;;5.79;80.26
82305;BME280;71914;47.382;8.168;2024-02-26T03:50:26;94909.63;;;5.81;80.80
82305;BME280;71914;47.382;8.168;2024-02-26T03:52:51;94909.50;;;5.83;79.33
82305;BME280;71914;47.382;8.168;2024-02-26T03:55:17;94903.16;;;5.59;80.53
82305;BME280;71914;47.382;8.168;2024-02-26T03:57:46;94911.72;;;5.52;80.77
82305;BME280;71914;47.382;8.168;2024-02-26T04:00:13;94925.34;;;5.54;80.90
82305;BME280;71914;47.382;8.168;2024-02-26T04:02:40;94925.88;;;5.57;81.40
82305;BME280;71914;47.382;8.168;2024-02-26T04:05:08;94939.69;;;5.58;82.12
82305;BME280;71914;47.382;8.168;2024-02-26T04:07:35;94935.31;;;5.58;80.97
82305;BME280;71914;47.382;8.168;2024-02-26T04:10:01;94926.53;;;5.59;81.27
82305;BME280;71914;47.382;8.168;2024-02-26T04:12:29;94930.91;;;5.59;81.75
82305;BME280;71914;47.382;8.168;2024-02-26T04:14:54;94926.91;;;5.64;82.60
82305;BME280;71914;47.382;8.168;2024-02-26T04:17:20;94927.78;;;5.73;84.19
82305;BME280;71914;47.382;8.168;2024-02-26T04:19:47;94924.38;;;5.73;81.98
82305;BME280;71914;47.382;8.168;2024-02-26T04:22:12;94931.06;;;5.75;82.60
82305;BME280;71914;47.382;8.168;2024-02-26T04:24:38;94931.19;;;5.74;82.44
82305;BME280;71914;47.382;8.168;2024-02-26T04:27:04;94924.88;;;5.76;83.25
82305;BME280;71914;47.382;8.168;2024-02-26T04:29:29;94923.31;;;5.84;81.41
82305;BME280;71914;47.382;8.168;2024-02-26T04:31:55;94915.91;;;5.71;81.95
82305;BME280;71914;47.382;8.168;2024-02-26T04:34:21;94917.97;;;5.67;81.05
82305;BME280;71914;47.382;8.168;2024-02-26T04:36:48;94910.25;;;5.75;79.85
82305;BME280;71914;47.382;8.168;2024-02-26T04:39:13;94922.91;;;5.70;80.75
82305;BME280;71914;47.382;8.168;2024-02-26T04:41:39;94915.59;;;5.74;80.29
82305;BME280;71914;47.382;8.168;2024-02-26T04:44:05;94922.81;;;5.62;80.68
82305;BME280;71914;47.382;8.168;2024-02-26T04:46:30;94922.34;;;5.40;81.03
82305;BME280;71914;47.382;8.168;2024-02-26T04:48:56;94928.41;;;5.31;82.03
82305;BME280;71914;47.382;8.168;2024-02-26T04:51:22;94932.88;;;5.39;85.75
82305;BME280;71914;47.382;8.168;2024-02-26T04:53:49;94940.41;;;5.50;84.42
82305;BME280;71914;47.382;8.168;2024-02-26T04:56:14;94949.91;;;5.59;84.03
82305;BME280;71914;47.382;8.168;2024-02-26T04:58:40;94934.69;;;5.64;80.60
82305;BME280;71914;47.382;8.168;2024-02-26T05:01:05;94933.31;;;5.52;80.48
82305;BME280;71914;47.382;8.168;2024-02-26T05:03:31;94932.03;;;5.38;81.28
82305;BME280;71914;47.382;8.168;2024-02-26T05:05:57;94931.03;;;5.31;81.17
82305;BME280;71914;47.382;8.168;2024-02-26T05:08:23;94942.94;;;5.24;81.70
82305;BME280;71914;47.382;8.168;2024-02-26T05:10:50;94934.44;;;5.13;82.47
82305;BME280;71914;47.382;8.168;2024-02-26T05:13:16;94928.88;;;5.08;82.67
82305;BME280;71914;47.382;8.168;2024-02-26T05:15:43;94931.91;;;5.04;82.91
82305;BME280;71914;47.382;8.168;2024-02-26T05:18:09;94942.44;;;5.02;82.54
82305;BME280;71914;47.382;8.168;2024-02-26T05:20:34;94953.69;;;4.93;83.35
82305;BME280;71914;47.382;8.168;2024-02-26T05:23:03;94952.59;;;4.95;85.66
82305;BME280;71914;47.382;8.168;2024-02-26T05:25:29;94947.31;;;5.05;86.96
82305;BME280;71914;47.382;8.168;2024-02-26T05:27:56;94948.22;;;5.14;87.20
82305;BME280;71914;47.382;8.168;2024-02-26T05:30:22;94949.56;;;5.18;85.58
82305;BME280;71914;47.382;8.168;2024-02-26T05:32:47;94946.16;;;5.18;85.54
82305;BME280;71914;47.382;8.168;2024-02-26T05:35:13;94933.56;;;5.23;85.13
82305;BME280;71914;47.382;8.168;2024-02-26T05:37:40;94937.84;;;5.32;84.66
82305;BME280;71914;47.382;8.168;2024-02-26T05:40:06;94933.94;;;5.28;84.05
82305;BME280;71914;47.382;8.168;2024-02-26T05:42:32;94931.66;;;5.33;85.48
82305;BME280;71914;47.382;8.168;2024-02-26T05:45:00;94919.88;;;5.39;85.26
82305;BME280;71914;47.382;8.168;2024-02-26T05:47:31;94909.78;;;5.36;85.01
82305;BME280;71914;47.382;8.168;2024-02-26T05:49:57;94907.50;;;5.32;85.43
82305;BME280;71914;47.382;8.168;2024-02-26T05:52:24;94921.28;;;5.33;85.62
82305;BME280;71914;47.382;8.168;2024-02-26T05:54:50;94919.22;;;5.37;85.82
82305;BME280;71914;47.382;8.168;2024-02-26T05:57:16;94926.56;;;5.41;85.86
82305;BME280;71914;47.382;8.168;2024-02-26T05:59:41;94924.34;;;5.46;86.77
82305;BME280;71914;47.382;8.168;2024-02-26T06:02:08;94927.44;;;5.50;82.56
82305;BME280;71914;47.382;8.168;2024-02-26T06:04:34;94926.94;;;5.46;86.04
82305;BME280;71914;47.382;8.168;2024-02-26T06:06:59;94943.75;;;5.42;83.62
82305;BME280;71914;47.382;8.168;2024-02-26T06:09:25;94944.59;;;5.25;85.63
82305;BME280;71914;47.382;8.168;2024-02-26T06:11:51;94942.38;;;5.30;87.27
82305;BME280;71914;47.382;8.168;2024-02-26T06:14:16;94940.06;;;5.27;85.85
82305;BME280;71914;47.382;8.168;2024-02-26T06:16:43;94944.91;;;5.22;83.40
82305;BME280;71914;47.382;8.168;2024-02-26T06:19:10;94948.03;;;4.97;84.12
82305;BME280;71914;47.382;8.168;2024-02-26T06:21:36;94953.22;;;4.79;84.82
82305;BME280;71914;47.382;8.168;2024-02-26T06:24:02;94961.19;;;4.68;85.65
82305;BME280;71914;47.382;8.168;2024-02-26T06:26:27;94966.94;;;4.62;85.75
82305;BME280;71914;47.382;8.168;2024-02-26T06:28:58;94969.53;;;4.62;85.90
82305;BME280;71914;47.382;8.168;2024-02-26T06:31:24;94973.09;;;4.61;86.36
82305;BME280;71914;47.382;8.168;2024-02-26T06:33:52;94969.13;;;4.67;88.06
82305;BME280;71914;47.382;8.168;2024-02-26T06:36:19;94970.03;;;4.75;89.01
82305;BME280;71914;47.382;8.168;2024-02-26T06:38:45;94958.50;;;4.88;89.00
82305;BME280;71914;47.382;8.168;2024-02-26T06:41:11;94963.13;;;4.94;85.36
82305;BME280;71914;47.382;8.168;2024-02-26T06:43:36;94966.19;;;4.79;85.59
82305;BME280;71914;47.382;8.168;2024-02-26T06:46:02;94968.66;;;4.81;85.51
82305;BME280;71914;47.382;8.168;2024-02-26T06:48:28;94969.06;;;4.76;85.67
82305;BME280;71914;47.382;8.168;2024-02-26T06:50:54;94969.78;;;4.69;86.15
82305;BME280;71914;47.382;8.168;2024-02-26T06:53:21;94977.94;;;4.84;87.33
82305;BME280;71914;47.382;8.168;2024-02-26T06:55:46;94990.69;;;4.95;89.41
82305;BME280;71914;47.382;8.168;2024-02-26T06:58:12;95000.59;;;5.09;89.17
82305;BME280;71914;47.382;8.168;2024-02-26T07:00:37;95000.22;;;5.22;84.65
82305;BME280;71914;47.382;8.168;2024-02-26T07:03:03;94993.91;;;5.07;84.38
82305;BME280;71914;47.382;8.168;2024-02-26T07:05:29;94988.09;;;4.95;84.63
82305;BME280;71914;47.382;8.168;2024-02-26T07:07:55;94982.25;;;4.93;85.28
82305;BME280;71914;47.382;8.168;2024-02-26T07:10:22;94987.66;;;4.99;85.23
82305;BME280;71914;47.382;8.168;2024-02-26T07:12:47;94980.03;;;4.98;84.98
82305;BME280;71914;47.382;8.168;2024-02-26T07:15:13;94977.09;;;5.11;84.87
82305;BME280;71914;47.382;8.168;2024-02-26T07:17:39;94965.66;;;5.22;87.97
82305;BME280;71914;47.382;8.168;2024-02-26T07:20:08;94959.72;;;5.47;88.41
82305;BME280;71914;47.382;8.168;2024-02-26T07:22:34;94956.00;;;5.68;83.87
82305;BME280;71914;47.382;8.168;2024-02-26T07:24:59;94947.09;;;5.71;81.98
82305;BME280;71914;47.382;8.168;2024-02-26T07:27:26;94945.81;;;5.75;81.34
82305;BME280;71914;47.382;8.168;2024-02-26T07:29:52;94952.06;;;5.64;81.40
82305;BME280;71914;47.382;8.168;2024-02-26T07:32:17;94956.59;;;5.62;81.16
82305;BME280;71914;47.382;8.168;2024-02-26T07:34:43;94962.78;;;5.61;81.60
82305;BME280;71914;47.382;8.168;2024-02-26T07:37:10;94968.63;;;5.81;84.59
82305;BME280;71914;47.382;8.168;2024-02-26T07:39:35;94980.72;;;5.90;83.33
82305;BME280;71914;47.382;8.168;2024-02-26T07:42:02;94973.91;;;5.97;79.95
82305;BME280;71914;47.382;8.168;2024-02-26T07:44:29;94968.88;;;5.96;79.62
82305;BME280;71914;47.382;8.168;2024-02-26T07:46:54;94968.97;;;5.86;79.86
82305;BME280;71914;47.382;8.168;2024-02-26T07:49:20;94974.25;;;5.76;81.10
82305;BME280;71914;47.382;8.168;2024-02-26T07:51:45;94973.91;;;5.97;80.50
82305;BME280;71914;47.382;8.168;2024-02-26T07:54:11;94972.94;;;6.17;83.55
82305;BME280;71914;47.382;8.168;2024-02-26T07:56:37;94962.22;;;6.46;83.95
82305;BME280;71914;47.382;8.168;2024-02-26T07:59:03;94972.78;;;6.79;82.66
82305;BME280;71914;47.382;8.168;2024-02-26T08:01:30;94974.25;;;6.81;77.09
82305;BME280;71914;47.382;8.168;2024-02-26T08:03:55;94973.28;;;6.82;78.75
82305;BME280;71914;47.382;8.168;2024-02-26T08:06:20;94975.00;;;7.00;76.54
82305;BME280;71914;47.382;8.168;2024-02-26T08:08:46;94977.00;;;7.31;79.70
82305;BME280;71914;47.382;8.168;2024-02-26T08:11:14;94980.44;;;7.48;79.13
82305;BME280;71914;47.382;8.168;2024-02-26T08:13:39;94978.00;;;7.55;77.02
82305;BME280;71914;47.382;8.168;2024-02-26T08:16:05;94973.47;;;7.57;77.16
82305;BME280;71914;47.382;8.168;2024-02-26T08:18:32;94982.91;;;7.74;79.09
82305;BME280;71914;47.382;8.168;2024-02-26T08:20:58;94977.06;;;7.89;73.89
82305;BME280;71914;47.382;8.168;2024-02-26T08:23:24;94969.56;;;7.69;72.20
82305;BME280;71914;47.382;8.168;2024-02-26T08:25:50;94978.19;;;7.45;73.29
82305;BME280;71914;47.382;8.168;2024-02-26T08:28:16;94968.84;;;7.26;73.90
82305;BME280;71914;47.382;8.168;2024-02-26T08:30:43;94967.22;;;7.25;76.82
82305;BME280;71914;47.382;8.168;2024-02-26T08:33:08;94967.09;;;7.35;75.14
82305;BME280;71914;47.382;8.168;2024-02-26T08:35:36;94965.44;;;7.25;75.70
82305;BME280;71914;47.382;8.168;2024-02-26T08:38:02;94977.31;;;7.20;76.67
82305;BME280;71914;47.382;8.168;2024-02-26T08:40:28;94988.53;;;7.20;76.36
82305;BME280;71914;47.382;8.168;2024-02-26T08:42:53;94998.63;;;7.23;75.62
82305;BME280;71914;47.382;8.168;2024-02-26T08:45:19;94991.50;;;7.25;77.42
82305;BME280;71914;47.382;8.168;2024-02-26T08:47:45;94996.72;;;7.34;77.74
82305;BME280;71914;47.382;8.168;2024-02-26T08:50:11;95001.13;;;7.50;78.21
82305;BME280;71914;47.382;8.168;2024-02-26T08:52:38;95004.75;;;7.48;75.73
82305;BME280;71914;47.382;8.168;2024-02-26T08:55:06;95007.31;;;7.40;75.69
82305;BME280;71914;47.382;8.168;2024-02-26T08:57:31;94999.47;;;7.32;75.20
82305;BME280;71914;47.382;8.168;2024-02-26T08:59:59;94992.97;;;7.36;75.39
82305;BME280;71914;47.382;8.168;2024-02-26T09:02:25;94993.66;;;7.38;76.59
82305;BME280;71914;47.382;8.168;2024-02-26T09:04:51;94993.25;;;7.25;73.92
82305;BME280;71914;47.382;8.168;2024-02-26T09:07:19;94987.06;;;7.18;73.90
82305;BME280;71914;47.382;8.168;2024-02-26T09:09:46;94987.34;;;6.98;74.45
82305;BME280;71914;47.382;8.168;2024-02-26T09:12:11;94975.00;;;7.00;74.95
82305;BME280;71914;47.382;8.168;2024-02-26T09:14:37;94973.81;;;6.94;74.98
82305;BME280;71914;47.382;8.168;2024-02-26T09:17:03;94980.31;;;6.90;75.03
82305;BME280;71914;47.382;8.168;2024-02-26T09:19:29;94989.41;;;6.86;76.08
82305;BME280;71914;47.382;8.168;2024-02-26T09:21:54;95005.22;;;6.93;76.50
82305;BME280;71914;47.382;8.168;2024-02-26T09:24:23;95004.63;;;7.07;75.44
82305;BME280;71914;47.382;8.168;2024-02-26T09:26:51;95010.19;;;7.21;74.86
82305;BME280;71914;47.382;8.168;2024-02-26T09:29:17;95003.22;;;7.21;74.41
82305;BME280;71914;47.382;8.168;2024-02-26T09:31:42;94994.56;;;7.21;75.12
82305;BME280;71914;47.382;8.168;2024-02-26T09:34:09;94994.44;;;7.22;73.87
82305;BME280;71914;47.382;8.168;2024-02-26T09:36:34;94993.75;;;7.12;74.48
82305;BME280;71914;47.382;8.168;2024-02-26T09:39:00;94995.84;;;7.08;75.02
82305;BME280;71914;47.382;8.168;2024-02-26T09:41:27;95003.16;;;7.13;77.38
82305;BME280;71914;47.382;8.168;2024-02-26T09:43:56;95005.66;;;7.31;74.41
82305;BME280;71914;47.382;8.168;2024-02-26T09:46:23;94999.81;;;7.29;76.28
82305;BME280;71914;47.382;8.168;2024-02-26T09:48:49;94996.53;;;7.27;73.78
82305;BME280;71914;47.382;8.168;2024-02-26T09:51:16;94999.31;;;7.25;76.01
82305;BME280;71914;47.382;8.168;2024-02-26T09:53:43;94994.63;;;7.37;73.90
82305;BME280;71914;47.382;8.168;2024-02-26T09:56:11;94996.22;;;7.30;74.23
82305;BME280;71914;47.382;8.168;2024-02-26T09:58:37;95004.19;;;7.37;74.21
82305;BME280;71914;47.382;8.168;2024-02-26T10:01:10;94995.91;;;7.33;73.59
82305;BME280;71914;47.382;8.168;2024-02-26T10:03:38;95002.53;;;7.19;73.54
82305;BME280;71914;47.382;8.168;2024-02-26T10:06:06;94998.47;;;7.25;74.47
82305;BME280;71914;47.382;8.168;2024-02-26T10:08:32;95007.31;;;7.32;74.13
82305;BME280;71914;47.382;8.168;2024-02-26T10:10:58;95016.94;;;7.48;74.46
82305;BME280;71914;47.382;8.168;2024-02-26T10:13:25;95015.97;;;7.57;73.05
82305;BME280;71914;47.382;8.168;2024-02-26T10:15:50;95012.06;;;7.61;71.45
82305;BME280;71914;47.382;8.168;2024-02-26T10:18:17;95014.03;;;7.68;72.62
82305;BME280;71914;47.382;8.168;2024-02-26T10:20:59;95028.22;;;7.73;72.47
82305;BME280;71914;47.382;8.168;2024-02-26T10:23:25;95021.06;;;7.75;71.25
82305;BME280;71914;47.382;8.168;2024-02-26T10:25:53;95028.22;;;7.65;71.22
82305;BME280;71914;47.382;8.168;2024-02-26T10:28:19;95034.91;;;7.68;70.82
82305;BME280;71914;47.382;8.168;2024-02-26T10:30:45;95038.19;;;7.78;73.39
82305;BME280;71914;47.382;8.168;2024-02-26T10:33:11;95040.63;;;7.88;73.44
82305;BME280;71914;47.382;8.168;2024-02-26T10:35:38;95048.81;;;8.01;73.94
82305;BME280;71914;47.382;8.168;2024-02-26T10:38:07;95051.06;;;8.12;71.70
82305;BME280;71914;47.382;8.168;2024-02-26T10:40:32;95059.22;;;8.26;71.81
82305;BME280;71914;47.382;8.168;2024-02-26T10:42:58;95058.88;;;8.37;71.28
82305;BME280;71914;47.382;8.168;2024-02-26T10:45:24;95056.63;;;8.34;67.67
82305;BME280;71914;47.382;8.168;2024-02-26T10:47:50;95058.88;;;8.37;67.72
82305;BME280;71914;47.382;8.168;2024-02-26T10:50:16;95057.25;;;8.36;70.69
82305;BME280;71914;47.382;8.168;2024-02-26T10:52:43;95056.78;;;8.41;69.38
82305;BME280;71914;47.382;8.168;2024-02-26T10:55:13;95059.38;;;8.41;67.92
82305;BME280;71914;47.382;8.168;2024-02-26T10:57:41;95062.34;;;8.21;68.68
82305;BME280;71914;47.382;8.168;2024-02-26T11:00:08;95058.25;;;8.10;68.43
82305;BME280;71914;47.382;8.168;2024-02-26T11:02:38;95058.22;;;8.02;69.89
82305;BME280;71914;47.382;8.168;2024-02-26T11:05:06;95059.22;;;8.09;69.17
82305;BME280;71914;47.382;8.168;2024-02-26T11:07:34;95058.09;;;8.12;69.57
82305;BME280;71914;47.382;8.168;2024-02-26T11:10:04;95056.94;;;7.90;69.28
82305;BME280;71914;47.382;8.168;2024-02-26T11:12:32;95055.13;;;7.90;69.61
82305;BME280;71914;47.382;8.168;2024-02-26T11:15:01;95049.28;;;7.96;69.80
82305;BME280;71914;47.382;8.168;2024-02-26T11:17:27;95052.03;;;8.03;70.51
82305;BME280;71914;47.382;8.168;2024-02-26T11:19:57;95045.19;;;7.94;69.98
82305;BME280;71914;47.382;8.168;2024-02-26T11:22:23;95042.75;;;8.09;69.48
82305;BME280;71914;47.382;8.168;2024-02-26T11:24:51;95043.72;;;8.00;69.28
82305;BME280;71914;47.382;8.168;2024-02-26T11:27:20;95051.06;;;7.96;71.10
82305;BME280;71914;47.382;8.168;2024-02-26T11:29:52;95046.34;;;7.91;71.03
82305;BME280;71914;47.382;8.168;2024-02-26T11:32:18;95038.03;;;8.04;71.37
82305;BME280;71914;47.382;8.168;2024-02-26T11:34:44;95034.94;;;8.01;70.93
82305;BME280;71914;47.382;8.168;2024-02-26T11:37:11;95037.69;;;7.99;72.64
82305;BME280;71914;47.382;8.168;2024-02-26T11:39:36;95049.44;;;8.11;71.25
82305;BME280;71914;47.382;8.168;2024-02-26T11:42:05;95044.22;;;8.11;72.01
82305;BME280;71914;47.382;8.168;2024-02-26T11:44:32;95041.47;;;8.13;72.35
82305;BME280;71914;47.382;8.168;2024-02-26T11:46:58;95039.97;;;8.27;69.85
82305;BME280;71914;47.382;8.168;2024-02-26T11:49:31;95034.59;;;8.28;70.21
82305;BME280;71914;47.382;8.168;2024-02-26T11:51:57;95035.41;;;8.37;69.90
82305;BME280;71914;47.382;8.168;2024-02-26T11:54:53;95036.06;;;8.47;70.69
82305;BME280;71914;47.382;8.168;2024-02-26T11:57:29;95029.53;;;8.52;67.56
82305;BME280;71914;47.382;8.168;2024-02-26T12:00:11;95032.31;;;8.50;67.78
82305;BME280;71914;47.382;8.168;2024-02-26T12:02:43;95028.88;;;8.50;67.94
82305;BME280;71914;47.382;8.168;2024-02-26T12:05:11;95029.53;;;8.43;68.37
82305;BME280;71914;47.382;8.168;2024-02-26T12:07:39;95025.13;;;8.36;69.17
82305;BME280;71914;47.382;8.168;2024-02-26T12:10:16;95026.44;;;8.56;71.52
82305;BME280;71914;47.382;8.168;2024-02-26T12:12:42;95029.53;;;8.68;69.51
82305;BME280;71914;47.382;8.168;2024-02-26T12:15:09;95023.28;;;8.69;67.06
82305;BME280;71914;47.382;8.168;2024-02-26T12:17:37;95024.97;;;8.62;66.25
82305;BME280;71914;47.382;8.168;2024-02-26T12:20:09;95023.19;;;8.54;66.98
82305;BME280;71914;47.382;8.168;2024-02-26T12:22:35;95024.31;;;8.43;67.93
82305;BME280;71914;47.382;8.168;2024-02-26T12:25:02;95021.72;;;8.52;68.60
82305;BME280;71914;47.382;8.168;2024-02-26T12:27:28;95023.16;;;8.62;69.42
82305;BME280;71914;47.382;8.168;2024-02-26T12:29:54;95024.25;;;8.76;68.01
82305;BME280;71914;47.382;8.168;2024-02-26T12:32:21;95028.34;;;8.79;67.48
82305;BME280;71914;47.382;8.168;2024-02-26T12:34:47;95025.34;;;8.90;66.95
82305;BME280;71914;47.382;8.168;2024-02-26T12:37:13;95032.25;;;8.83;67.80
82305;BME280;71914;47.382;8.168;2024-02-26T12:39:39;95028.81;;;8.83;66.85
82305;BME280;71914;47.382;8.168;2024-02-26T12:42:05;95035.78;;;8.90;65.75
82305;BME280;71914;47.382;8.168;2024-02-26T12:44:31;95033.19;;;8.99;67.04
82305;BME280;71914;47.382;8.168;2024-02-26T12:47:00;95031.63;;;9.21;69.73
82305;BME280;71914;47.382;8.168;2024-02-26T12:49:27;95027.94;;;9.38;66.49
82305;BME280;71914;47.382;8.168;2024-02-26T12:51:52;95016.88;;;9.28;64.59
82305;BME280;71914;47.382;8.168;2024-02-26T12:54:18;95012.84;;;9.17;66.53
82305;BME280;71914;47.382;8.168;2024-02-26T12:56:44;95010.78;;;9.04;66.06
82305;BME280;71914;47.382;8.168;2024-02-26T12:59:10;95016.66;;;8.98;66.07
82305;BME280;71914;47.382;8.168;2024-02-26T13:01:36;95031.31;;;9.16;67.39
82305;BME280;71914;47.382;8.168;2024-02-26T13:04:02;95035.84;;;9.30;65.81
82305;BME280;71914;47.382;8.168;2024-02-26T13:06:33;95037.16;;;9.18;63.67